createdAt,value
2023-02-23T00:01:17.511Z,15.70
2023-02-23T00:03:44.621Z,16.97
2023-02-23T00:06:12.342Z,19.87
2023-02-23T00:08:40.405Z,17.83
2023-02-23T00:11:11.431Z,16.90
2023-02-23T00:13:38.891Z,17.33
2023-02-23T00:16:07.047Z,16.80
2023-02-23T00:18:50.598Z,19.30
2023-02-23T00:21:19.495Z,18.30
2023-02-23T00:23:51.210Z,19.27
2023-02-23T00:26:20.814Z,18.33
2023-02-23T00:28:48.919Z,18.87
2023-02-23T00:31:15.956Z,19.33
2023-02-23T00:33:46.005Z,18.77
2023-02-23T00:36:14.850Z,16.63
2023-02-23T00:38:42.679Z,19.80
2023-02-23T00:41:12.976Z,18.97
2023-02-23T00:43:47.583Z,18.43
2023-02-23T00:46:16.665Z,19.00
2023-02-23T00:48:46.061Z,18.47
2023-02-23T00:51:13.386Z,19.03
2023-02-23T00:53:40.609Z,19.30
2023-02-23T00:56:09.386Z,20.03
2023-02-23T00:58:37.111Z,20.30
2023-02-23T01:01:06.256Z,17.40
2023-02-23T01:03:33.564Z,16.70
2023-02-23T01:06:06.447Z,19.07
2023-02-23T01:08:34.324Z,18.33
2023-02-23T01:11:06.053Z,18.50
2023-02-23T01:13:33.113Z,19.87
2023-02-23T01:16:04.899Z,18.13
2023-02-23T01:18:34.675Z,19.93
2023-02-23T01:21:05.456Z,19.40
2023-02-23T01:23:32.525Z,18.97
2023-02-23T01:25:59.767Z,21.03
2023-02-23T01:28:26.655Z,18.47
2023-02-23T01:30:53.638Z,19.40
2023-02-23T01:33:20.679Z,17.40
2023-02-23T01:35:57.833Z,19.03
2023-02-23T01:38:26.086Z,19.27
2023-02-23T01:40:52.967Z,18.07
2023-02-23T01:43:26.130Z,17.07
2023-02-23T01:45:55.306Z,16.73
2023-02-23T01:48:27.518Z,20.73
2023-02-23T01:50:58.665Z,16.73
2023-02-23T01:53:30.798Z,18.47
2023-02-23T01:56:00.731Z,18.23
2023-02-23T01:58:28.925Z,16.80
2023-02-23T02:00:58.517Z,13.77
2023-02-23T02:03:30.348Z,14.57
2023-02-23T02:05:58.806Z,14.97
2023-02-23T02:08:28.645Z,14.50
2023-02-23T02:10:56.021Z,13.40
2023-02-23T02:13:26.528Z,12.43
2023-02-23T02:16:17.362Z,14.07
2023-02-23T02:19:05.949Z,14.17
2023-02-23T02:22:08.750Z,15.80
2023-02-23T02:25:12.800Z,14.13
2023-02-23T02:28:04.252Z,15.13
2023-02-23T02:31:03.685Z,14.87
2023-02-23T02:33:52.497Z,14.13
2023-02-23T02:36:48.859Z,14.47
2023-02-23T02:39:24.104Z,13.37
2023-02-23T02:42:01.277Z,14.07
2023-02-23T02:44:38.028Z,13.60
2023-02-23T02:47:09.750Z,15.47
2023-02-23T02:49:45.338Z,14.77
2023-02-23T02:52:19.757Z,15.17
2023-02-23T02:54:49.621Z,16.17
2023-02-23T02:57:18.423Z,16.80
2023-02-23T03:00:07.219Z,17.07
2023-02-23T03:02:57.624Z,17.47
2023-02-23T03:05:47.585Z,17.13
2023-02-23T03:08:41.480Z,17.77
2023-02-23T03:11:29.897Z,16.87
2023-02-23T03:14:27.226Z,18.73
2023-02-23T03:17:22.908Z,17.83
2023-02-23T03:20:15.823Z,18.13
2023-02-23T03:23:10.310Z,16.90
2023-02-23T03:26:07.392Z,19.10
2023-02-23T03:28:56.218Z,18.20
2023-02-23T03:31:46.818Z,18.33
2023-02-23T03:34:36.087Z,16.20
2023-02-23T03:37:30.449Z,14.93
2023-02-23T03:40:28.698Z,19.90
2023-02-23T03:43:20.458Z,15.83
2023-02-23T03:46:07.932Z,15.70
2023-02-23T03:48:55.303Z,18.27
2023-02-23T03:51:43.259Z,16.20
2023-02-23T03:54:33.137Z,16.10
2023-02-23T03:57:23.272Z,16.33
2023-02-23T04:00:15.633Z,17.50
2023-02-23T04:03:04.259Z,15.33
2023-02-23T04:05:51.232Z,17.60
2023-02-23T04:08:38.535Z,14.70
2023-02-23T04:11:32.636Z,12.40
2023-02-23T04:14:05.309Z,17.07
2023-02-23T04:16:33.856Z,13.47
2023-02-23T04:19:01.407Z,12.60
2023-02-23T04:21:28.496Z,13.97
2023-02-23T04:23:55.370Z,11.70
2023-02-23T04:26:22.583Z,12.70
2023-02-23T04:28:49.458Z,10.50
2023-02-23T04:31:18.924Z,13.17
2023-02-23T04:33:47.389Z,11.33
2023-02-23T04:36:14.328Z,12.23
2023-02-23T04:38:41.240Z,11.73
2023-02-23T04:41:08.229Z,14.33
2023-02-23T04:43:35.307Z,12.43
2023-02-23T04:46:02.363Z,12.43
2023-02-23T04:48:29.225Z,11.20
2023-02-23T04:50:57.740Z,11.97
2023-02-23T04:53:25.280Z,11.40
2023-02-23T04:55:52.128Z,12.13
2023-02-23T04:58:19.219Z,11.27
2023-02-23T05:00:46.138Z,10.03
2023-02-23T05:03:13.225Z,13.00
2023-02-23T05:05:40.167Z,13.20
2023-02-23T05:08:08.414Z,12.27
2023-02-23T05:10:35.587Z,12.60
2023-02-23T05:13:02.450Z,11.67
2023-02-23T05:15:29.498Z,12.30
2023-02-23T05:17:56.337Z,14.37
2023-02-23T05:20:23.294Z,12.13
2023-02-23T05:22:50.254Z,12.00
2023-02-23T05:25:18.701Z,12.90
2023-02-23T05:27:45.559Z,11.57
2023-02-23T05:30:13.563Z,11.30
2023-02-23T05:32:40.585Z,11.20
2023-02-23T05:35:09.031Z,12.47
2023-02-23T05:37:35.987Z,9.83
2023-02-23T05:40:03.234Z,12.60
2023-02-23T05:42:31.584Z,12.77
2023-02-23T05:44:58.459Z,11.27
2023-02-23T05:47:25.460Z,12.07
2023-02-23T05:49:52.555Z,10.70
2023-02-23T05:52:19.465Z,11.10
2023-02-23T05:54:46.738Z,10.27
2023-02-23T05:57:13.721Z,11.30
2023-02-23T05:59:41.966Z,12.33
2023-02-23T06:02:08.854Z,12.77
2023-02-23T06:04:35.766Z,10.50
2023-02-23T06:07:02.633Z,12.27
2023-02-23T06:09:29.664Z,10.97
2023-02-23T06:11:57.001Z,10.87
2023-02-23T06:14:23.799Z,11.77
2023-02-23T06:16:52.066Z,11.70
2023-02-23T06:19:19.159Z,11.60
2023-02-23T06:21:46.701Z,11.30
2023-02-23T06:24:13.604Z,12.37
2023-02-23T06:26:41.308Z,11.10
2023-02-23T06:29:09.242Z,9.80
2023-02-23T06:31:36.226Z,11.03
2023-02-23T06:34:04.836Z,11.27
2023-02-23T06:36:31.782Z,10.47
2023-02-23T06:38:59.317Z,10.90
2023-02-23T06:41:26.690Z,10.70
2023-02-23T06:43:53.939Z,11.23
2023-02-23T06:46:20.927Z,12.40
2023-02-23T06:48:47.824Z,12.00
2023-02-23T06:51:16.105Z,10.30
2023-02-23T06:53:42.917Z,9.97
2023-02-23T06:56:11.590Z,10.43
2023-02-23T06:58:39.284Z,10.23
2023-02-23T07:01:06.283Z,10.00
2023-02-23T07:03:33.682Z,10.50
2023-02-23T07:06:00.593Z,11.10
2023-02-23T07:08:28.788Z,11.73
2023-02-23T07:10:57.707Z,9.93
2023-02-23T07:13:24.622Z,10.63
2023-02-23T07:15:57.168Z,10.87
2023-02-23T07:18:24.032Z,9.97
2023-02-23T07:20:51.928Z,9.93
2023-02-23T07:23:19.318Z,13.07
2023-02-23T07:25:50.788Z,10.97
2023-02-23T07:28:17.673Z,11.97
2023-02-23T07:30:44.722Z,13.40
2023-02-23T07:33:11.632Z,9.90
2023-02-23T07:35:38.554Z,11.03
2023-02-23T07:38:07.394Z,9.90
2023-02-23T07:40:34.229Z,11.90
2023-02-23T07:43:02.483Z,13.53
2023-02-23T07:45:29.470Z,12.93
2023-02-23T07:47:56.407Z,12.43
2023-02-23T07:50:23.267Z,10.37
2023-02-23T07:52:50.904Z,12.53
2023-02-23T07:55:17.936Z,9.63
2023-02-23T07:57:44.934Z,12.37
2023-02-23T08:00:14.807Z,10.27
2023-02-23T08:02:43.003Z,11.37
2023-02-23T08:05:10.148Z,10.67
2023-02-23T08:07:37.536Z,10.43
2023-02-23T08:10:05.198Z,12.00
2023-02-23T08:12:33.574Z,8.23
2023-02-23T08:15:00.583Z,8.27
2023-02-23T08:17:29.261Z,9.63
2023-02-23T08:19:56.098Z,8.70
2023-02-23T08:22:22.990Z,9.13
2023-02-23T08:24:49.857Z,8.57
2023-02-23T08:27:16.773Z,8.87
2023-02-23T08:29:43.702Z,7.57
2023-02-23T08:32:10.828Z,8.13
2023-02-23T08:34:40.517Z,9.77
2023-02-23T08:37:07.950Z,8.50
2023-02-23T08:39:35.248Z,8.83
2023-02-23T08:42:02.155Z,9.37
2023-02-23T08:44:29.085Z,10.10
2023-02-23T08:46:58.237Z,10.23
2023-02-23T08:49:25.744Z,7.83
2023-02-23T08:51:53.965Z,10.90
2023-02-23T08:54:20.946Z,8.17
2023-02-23T08:56:47.781Z,8.07
2023-02-23T08:59:15.443Z,8.33
2023-02-23T09:01:43.235Z,8.37
2023-02-23T09:04:10.420Z,8.53
2023-02-23T09:06:37.792Z,10.17
2023-02-23T09:09:05.991Z,8.50
2023-02-23T09:11:33.166Z,9.50
2023-02-23T09:14:00.033Z,9.43
2023-02-23T09:16:27.013Z,7.90
2023-02-23T09:18:54.106Z,8.63
2023-02-23T09:21:25.065Z,9.20
2023-02-23T09:23:54.508Z,10.00
2023-02-23T09:26:23.789Z,9.50
2023-02-23T09:28:50.979Z,10.60
2023-02-23T09:31:21.502Z,7.37
2023-02-23T09:33:49.346Z,7.50
2023-02-23T09:36:19.055Z,8.50
2023-02-23T09:38:48.265Z,7.60
2023-02-23T09:41:51.059Z,9.73
2023-02-23T09:44:29.328Z,6.80
2023-02-23T09:47:05.560Z,10.83
2023-02-23T09:49:35.133Z,8.37
2023-02-23T09:52:04.002Z,8.33
2023-02-23T09:54:34.527Z,7.00
2023-02-23T09:57:04.979Z,9.13
2023-02-23T09:59:36.107Z,6.37
2023-02-23T10:02:10.976Z,8.20
2023-02-23T10:04:43.397Z,8.00
2023-02-23T10:07:14.653Z,7.30
2023-02-23T10:10:01.416Z,11.10
2023-02-23T10:12:34.567Z,7.00
2023-02-23T10:15:15.430Z,7.73
2023-02-23T10:17:53.785Z,6.33
2023-02-23T10:20:28.136Z,6.33
2023-02-23T10:22:59.877Z,7.83
2023-02-23T10:25:30.712Z,6.40
2023-02-23T10:27:59.585Z,6.93
2023-02-23T10:30:29.836Z,8.07
2023-02-23T10:33:04.651Z,6.37
2023-02-23T10:35:32.126Z,5.93
2023-02-23T10:38:01.898Z,4.80
2023-02-23T10:40:33.038Z,8.17
2023-02-23T10:43:02.421Z,6.97
2023-02-23T10:45:37.421Z,6.77
2023-02-23T10:48:07.691Z,5.50
2023-02-23T10:50:37.713Z,5.87
2023-02-23T10:53:16.394Z,5.73
2023-02-23T10:55:45.362Z,4.50
2023-02-23T10:58:18.828Z,4.80
2023-02-23T11:00:56.492Z,7.60
2023-02-23T11:03:28.683Z,4.63
2023-02-23T11:05:55.871Z,4.70
2023-02-23T11:08:27.349Z,5.03
2023-02-23T11:10:59.867Z,6.60
2023-02-23T11:13:28.634Z,6.40
2023-02-23T11:16:02.674Z,5.43
2023-02-23T11:18:29.852Z,4.33
2023-02-23T11:20:57.651Z,9.00
2023-02-23T11:23:29.173Z,6.03
2023-02-23T11:26:01.528Z,4.50
2023-02-23T11:28:32.208Z,6.60
2023-02-23T11:31:03.906Z,5.93
2023-02-23T11:33:36.023Z,4.33
2023-02-23T11:36:18.069Z,5.87
2023-02-23T11:38:45.907Z,6.10
2023-02-23T11:41:21.466Z,6.27
2023-02-23T11:43:50.430Z,7.40
2023-02-23T11:46:21.780Z,6.27
2023-02-23T11:48:52.022Z,4.17
2023-02-23T11:51:29.006Z,5.30
2023-02-23T11:53:56.835Z,3.83
2023-02-23T11:56:25.771Z,7.60
2023-02-23T11:58:55.415Z,6.77
2023-02-23T12:01:36.827Z,5.90
2023-02-23T12:04:04.151Z,7.00
2023-02-23T12:06:33.963Z,6.07
2023-02-23T12:09:06.458Z,4.43
2023-02-23T12:11:37.504Z,7.27
2023-02-23T12:14:10.131Z,5.40
2023-02-23T12:16:44.071Z,5.10
2023-02-23T12:19:25.245Z,5.93
2023-02-23T12:22:00.627Z,6.13
2023-02-23T12:24:39.034Z,6.27
2023-02-23T12:27:12.859Z,4.43
2023-02-23T12:29:50.760Z,6.83
2023-02-23T12:32:24.138Z,7.30
2023-02-23T12:34:57.604Z,4.63
2023-02-23T12:37:37.346Z,4.33
2023-02-23T12:40:13.681Z,4.33
2023-02-23T12:42:47.178Z,5.10
2023-02-23T12:45:21.934Z,6.37
2023-02-23T12:47:59.611Z,4.67
2023-02-23T12:50:31.619Z,6.30
2023-02-23T12:53:06.960Z,6.17
2023-02-23T12:55:41.513Z,3.80
2023-02-23T12:58:21.203Z,6.77
2023-02-23T13:00:55.642Z,7.17
2023-02-23T13:03:48.329Z,4.80
2023-02-23T13:06:22.298Z,5.67
2023-02-23T13:09:02.456Z,4.73
2023-02-23T13:11:53.923Z,8.10
2023-02-23T13:14:29.727Z,4.83
2023-02-23T13:17:03.186Z,5.63
2023-02-23T13:19:38.611Z,3.90
2023-02-23T13:22:21.609Z,5.30
2023-02-23T13:24:52.374Z,7.07
2023-02-23T13:27:24.908Z,6.57
2023-02-23T13:29:54.987Z,7.87
2023-02-23T13:32:24.746Z,15.53
2023-02-23T13:34:57.111Z,13.33
2023-02-23T13:37:28.188Z,14.07
2023-02-23T13:40:09.291Z,8.63
2023-02-23T13:42:44.234Z,12.13
2023-02-23T13:45:26.407Z,9.07
2023-02-23T13:48:01.054Z,11.63
2023-02-23T13:50:37.775Z,9.73
2023-02-23T13:53:21.435Z,9.37
2023-02-23T13:55:51.541Z,6.93
2023-02-23T13:58:22.874Z,7.83
2023-02-23T14:01:11.790Z,8.13
2023-02-23T14:03:44.610Z,9.50
2023-02-23T14:06:15.905Z,9.67
2023-02-23T14:08:45.505Z,7.43
2023-02-23T14:11:36.466Z,9.00
2023-02-23T14:14:04.147Z,8.90
2023-02-23T14:16:31.715Z,8.47
2023-02-23T14:19:13.702Z,5.87
2023-02-23T14:21:52.038Z,8.00
2023-02-23T14:24:21.980Z,7.37
2023-02-23T14:27:40.288Z,8.07
2023-02-23T14:30:43.780Z,8.30
2023-02-23T14:37:32.066Z,7.80
2023-02-23T14:40:12.345Z,9.00
2023-02-23T14:42:40.674Z,7.80
2023-02-23T14:45:19.094Z,8.50
2023-02-23T14:47:48.091Z,11.93
2023-02-23T14:50:26.629Z,7.57
2023-02-23T14:52:56.582Z,8.57
2023-02-23T14:55:28.028Z,11.37
2023-02-23T14:57:57.993Z,8.70
2023-02-23T15:00:27.470Z,8.80
2023-02-23T15:02:57.105Z,10.80
2023-02-23T15:05:26.881Z,12.07
2023-02-23T15:07:59.357Z,12.87
2023-02-23T15:10:29.791Z,9.60
2023-02-23T15:12:57.519Z,10.70
2023-02-23T15:15:26.264Z,12.63
2023-02-23T15:17:56.123Z,12.80
2023-02-23T15:20:28.783Z,11.00
2023-02-23T15:22:59.274Z,8.07
2023-02-23T15:25:34.421Z,8.67
2023-02-23T15:28:11.096Z,8.60
2023-02-23T15:30:46.881Z,11.43
2023-02-23T15:33:23.476Z,9.57
2023-02-23T15:35:54.127Z,7.93
2023-02-23T15:38:42.494Z,6.17
2023-02-23T15:41:17.980Z,7.63
2023-02-23T15:43:45.089Z,7.30
2023-02-23T15:46:24.327Z,6.80
2023-02-23T15:48:53.338Z,6.77
2023-02-23T15:51:32.530Z,6.53
2023-02-23T15:54:07.827Z,4.60
2023-02-23T15:56:35.533Z,5.87
2023-02-23T15:59:07.610Z,6.20
2023-02-23T16:01:34.555Z,7.00
2023-02-23T16:04:06.004Z,8.10
2023-02-23T16:06:35.104Z,6.33
2023-02-23T16:09:20.724Z,6.73
2023-02-23T16:11:50.794Z,7.10
2023-02-23T16:14:20.037Z,6.63
2023-02-23T16:17:01.387Z,5.90
2023-02-23T16:19:40.638Z,8.33
2023-02-23T16:22:19.791Z,6.83
2023-02-23T16:24:54.706Z,6.80
2023-02-23T16:27:23.032Z,8.77
2023-02-23T16:30:00.125Z,7.23
2023-02-23T16:32:35.417Z,8.27
2023-02-23T16:35:08.602Z,9.97
2023-02-23T16:37:56.897Z,6.23
2023-02-23T16:40:25.341Z,7.13
2023-02-23T16:42:53.989Z,6.50
2023-02-23T16:45:21.829Z,6.97
2023-02-23T16:47:48.890Z,8.73
2023-02-23T16:50:20.242Z,6.70
2023-02-23T16:52:51.775Z,8.57
2023-02-23T16:55:25.355Z,6.83
2023-02-23T16:57:56.321Z,8.57
2023-02-23T17:00:25.459Z,12.33
2023-02-23T17:02:52.866Z,8.63
2023-02-23T17:05:23.702Z,7.50
2023-02-23T17:07:51.279Z,8.33
2023-02-23T17:10:26.427Z,8.00
2023-02-23T17:12:57.099Z,12.07
2023-02-23T17:15:27.332Z,8.27
2023-02-23T17:17:56.130Z,8.07
2023-02-23T17:20:25.728Z,9.47
2023-02-23T17:22:53.626Z,6.60
2023-02-23T17:25:24.235Z,8.17
2023-02-23T17:27:51.419Z,7.27
2023-02-23T17:30:20.755Z,8.77
2023-02-23T17:32:48.633Z,9.73
2023-02-23T17:35:15.834Z,10.83
2023-02-23T17:37:43.247Z,9.57
2023-02-23T17:40:14.120Z,8.30
2023-02-23T17:42:41.091Z,7.70
2023-02-23T17:45:09.008Z,7.37
2023-02-23T17:47:40.978Z,8.33
2023-02-23T17:50:08.844Z,10.13
2023-02-23T17:52:35.895Z,9.83
2023-02-23T17:55:03.003Z,9.53
2023-02-23T17:57:31.127Z,7.40
2023-02-23T17:59:58.224Z,8.40
2023-02-23T18:02:25.384Z,10.50
2023-02-23T18:04:53.867Z,11.67
2023-02-23T18:07:21.572Z,11.07
2023-02-23T18:09:50.077Z,8.93
2023-02-23T18:12:17.654Z,10.23
2023-02-23T18:14:45.488Z,10.63
2023-02-23T18:17:13.018Z,10.20
2023-02-23T18:19:39.873Z,10.73
2023-02-23T18:22:08.377Z,11.50
2023-02-23T18:24:36.185Z,10.83
2023-02-23T18:27:03.324Z,10.17
2023-02-23T18:29:32.428Z,10.37
2023-02-23T18:32:00.736Z,11.67
2023-02-23T18:34:29.233Z,10.40
2023-02-23T18:37:02.164Z,10.90
2023-02-23T18:39:31.764Z,11.60
2023-02-23T18:41:59.539Z,11.67
2023-02-23T18:44:26.925Z,11.57
2023-02-23T18:46:54.850Z,10.97
2023-02-23T18:49:23.694Z,11.73
2023-02-23T18:51:51.406Z,10.40
2023-02-23T18:54:18.896Z,11.43
2023-02-23T18:56:48.310Z,11.10
2023-02-23T18:59:15.833Z,9.80
2023-02-23T19:01:45.393Z,12.50
2023-02-23T19:04:12.862Z,12.20
2023-02-23T19:06:42.236Z,10.80
2023-02-23T19:09:12.323Z,10.63
2023-02-23T19:11:40.189Z,11.37
2023-02-23T19:14:12.324Z,10.80
2023-02-23T19:16:40.977Z,9.97
2023-02-23T19:19:08.762Z,10.23
2023-02-23T19:21:36.404Z,11.57
2023-02-23T19:24:03.805Z,9.07
2023-02-23T19:26:31.588Z,12.43
2023-02-23T19:28:58.780Z,11.27
2023-02-23T19:31:28.315Z,12.60
2023-02-23T19:33:57.135Z,12.53
2023-02-23T19:36:29.940Z,10.90
2023-02-23T19:39:05.726Z,11.37
2023-02-23T19:41:33.877Z,11.20
2023-02-23T19:44:01.074Z,12.00
2023-02-23T19:46:29.484Z,11.70
2023-02-23T19:48:56.727Z,14.87
2023-02-23T19:51:24.037Z,15.00
2023-02-23T19:53:53.236Z,13.33
2023-02-23T19:56:20.518Z,11.77
2023-02-23T19:58:49.292Z,11.27
2023-02-23T20:01:19.324Z,13.73
2023-02-23T20:03:55.149Z,12.27
2023-02-23T20:06:23.725Z,19.30
2023-02-23T20:08:52.620Z,22.23
2023-02-23T20:11:20.061Z,16.33
2023-02-23T20:13:47.328Z,95.87
2023-02-23T20:16:15.125Z,18.50
2023-02-23T20:18:43.790Z,15.23
2023-02-23T20:21:14.580Z,10.37
2023-02-23T20:23:41.909Z,11.00
2023-02-23T20:26:11.634Z,11.73
2023-02-23T20:28:39.223Z,9.53
2023-02-23T20:31:11.895Z,10.90
2023-02-23T20:33:39.050Z,10.97
2023-02-23T20:36:06.204Z,13.23
2023-02-23T20:38:34.613Z,9.50
2023-02-23T20:41:04.179Z,12.00
2023-02-23T20:43:31.354Z,14.13
2023-02-23T20:46:00.910Z,12.63
2023-02-23T20:48:28.594Z,12.93
2023-02-23T20:50:56.396Z,12.50
2023-02-23T20:53:24.530Z,14.90
2023-02-23T20:55:53.276Z,15.97
2023-02-23T20:58:26.164Z,11.93
2023-02-23T21:01:06.251Z,14.73
2023-02-23T21:03:33.802Z,13.00
2023-02-23T21:06:00.905Z,12.03
2023-02-23T21:08:28.875Z,14.33
2023-02-23T21:10:57.195Z,13.53
2023-02-23T21:13:26.478Z,13.50
2023-02-23T21:15:58.007Z,14.63
2023-02-23T21:18:24.940Z,12.53
2023-02-23T21:20:51.901Z,16.47
2023-02-23T21:23:21.391Z,13.53
2023-02-23T21:25:48.969Z,12.03
2023-02-23T21:28:18.716Z,12.90
2023-02-23T21:31:35.280Z,12.27
2023-02-23T21:34:05.476Z,13.03
2023-02-23T21:36:32.590Z,15.13
2023-02-23T21:38:59.923Z,12.30
2023-02-23T21:41:29.026Z,12.93
2023-02-23T21:43:57.226Z,14.17
2023-02-23T21:46:24.616Z,15.80
2023-02-23T21:48:51.625Z,12.50
2023-02-23T21:51:19.121Z,13.80
2023-02-23T21:53:46.705Z,13.43
2023-02-23T21:56:15.963Z,12.17
2023-02-23T21:58:45.893Z,13.83
2023-02-23T22:01:16.627Z,15.23
2023-02-23T22:03:46.758Z,13.77
2023-02-23T22:06:14.760Z,13.37
2023-02-23T22:08:43.232Z,14.97
2023-02-23T22:11:18.720Z,15.33
2023-02-23T22:13:46.636Z,11.83
2023-02-23T22:16:17.353Z,12.40
2023-02-23T22:18:44.805Z,14.00
2023-02-23T22:21:12.724Z,17.23
2023-02-23T22:23:40.140Z,14.17
2023-02-23T22:26:08.069Z,13.80
2023-02-23T22:28:35.528Z,15.40
2023-02-23T22:31:04.594Z,16.77
2023-02-23T22:33:33.162Z,15.30
2023-02-23T22:36:01.356Z,17.63
2023-02-23T22:38:28.399Z,16.33
2023-02-23T22:40:55.513Z,18.57
2023-02-23T22:43:22.441Z,15.97
2023-02-23T22:45:53.657Z,18.20
2023-02-23T22:48:21.420Z,16.50
2023-02-23T22:50:50.246Z,17.33
2023-02-23T22:53:17.550Z,18.73
2023-02-23T22:55:46.874Z,17.70
2023-02-23T22:58:15.122Z,17.30
2023-02-23T23:00:42.143Z,16.43
2023-02-23T23:03:09.474Z,17.67
2023-02-23T23:05:37.333Z,20.20
2023-02-23T23:08:06.328Z,18.30
2023-02-23T23:10:33.175Z,20.43
2023-02-23T23:13:00.262Z,21.77
2023-02-23T23:15:27.173Z,21.20
2023-02-23T23:17:54.055Z,18.67
2023-02-23T23:20:25.636Z,19.73
2023-02-23T23:22:52.989Z,19.77
2023-02-23T23:25:22.992Z,20.47
2023-02-23T23:27:52.446Z,20.53
2023-02-23T23:30:28.921Z,22.43
2023-02-23T23:32:57.098Z,24.17
2023-02-23T23:35:25.986Z,20.97
2023-02-23T23:37:52.900Z,21.73
2023-02-23T23:40:24.343Z,23.97
2023-02-23T23:42:51.456Z,21.60
2023-02-23T23:45:24.015Z,24.47
2023-02-23T23:47:51.114Z,22.83
2023-02-23T23:50:18.074Z,21.37
2023-02-23T23:52:45.615Z,23.00
2023-02-23T23:55:14.739Z,22.40
2023-02-23T23:57:43.028Z,24.10
